Concordia, Kansas
Current Conditions -  °F | °C
As of 5:55 PM on Wednesday 22 Oct 2014 (Local Time) from KCNK Reporting Station
Light Rain Light Rain  
Wind Chill: 19°   Ceiling: 7500
Heat Index: 19°   Visibility: 6mi
Dew Point: 14°   Wind: 20mph
Humidity: 73%   Direction: 200°SSW
Pressure: 30.01"   Gusts: 32mph
Location:  39.57°N, 97.66°W
Report Text: KCNK 222255Z AUTO 20017G28KT 6SM -RA BKN075 OVC100 19/14 A3001 RMK AO2 PK WND 21028/2251 RAB14E31B50 SLP156 P0000 T01890139
Loading
Personal Weather Stations






























Interactive Weather Map New forecast layout! Learn more

10-Day Weather Forecast

Advertisements
Track Severe Weather on mobile